Terminal Aerodrome Forecast
Issued by NWS

Home | Current Version | Previous Version | Text Only | Print | Product List | Glossary On
Versions: 1 2 3 4 5 6 7 8 9 10 11 12 13
000
FTUS43 KGRB 202339
TAFMTW
TAF
KMTW 202339Z 2100/2124 14014G26KT 6SM -RA SCT040 OVC070
      WS012/17050KT
     FM210200 17014G23KT 3SM -RA BR OVC040 WS017/18055KT
     FM210800 22009KT 3SM BR BKN008
     FM211200 25007KT 3SM BR BKN005
     FM211500 27007KT P6SM SCT008 BKN250
     FM211700 26008KT P6SM FEW250=

USA.gov is the U.S. government's official web portal to all federal, state and local government web resources and services.